createdAt,value
2018-09-23T00:01:21.798Z,100833.00
2018-09-23T00:03:51.108Z,100833.00
2018-09-23T00:06:20.456Z,100846.00
2018-09-23T00:08:49.747Z,100836.00
2018-09-23T00:11:19.035Z,100834.00
2018-09-23T00:13:48.341Z,100816.00
2018-09-23T00:16:19.800Z,100826.00
2018-09-23T00:18:49.077Z,100817.00
2018-09-23T00:21:18.383Z,100812.00
2018-09-23T00:23:48.066Z,100810.00
2018-09-23T00:26:17.365Z,100810.00
2018-09-23T00:28:46.875Z,100803.00
2018-09-23T00:31:16.599Z,100814.00
2018-09-23T00:33:45.898Z,100822.00
2018-09-23T00:36:15.350Z,100820.00
2018-09-23T00:38:44.670Z,100827.00
2018-09-23T00:41:14.091Z,100824.00
2018-09-23T00:43:43.355Z,100810.00
2018-09-23T00:46:12.673Z,100813.00
2018-09-23T00:48:41.996Z,100814.00
2018-09-23T00:51:11.436Z,100813.00
2018-09-23T00:53:40.711Z,100819.00
2018-09-23T00:56:10.107Z,100810.00
2018-09-23T00:58:39.512Z,100812.00
2018-09-23T01:01:08.835Z,100805.00
2018-09-23T01:03:38.236Z,100800.00
2018-09-23T01:06:07.642Z,100797.00
2018-09-23T01:08:37.055Z,100797.00
2018-09-23T01:11:06.411Z,100799.00
2018-09-23T01:13:35.667Z,100799.00
2018-09-23T01:16:04.985Z,100780.00
2018-09-23T01:18:34.248Z,100787.00
2018-09-23T01:21:03.770Z,100786.00
2018-09-23T01:23:33.191Z,100779.00
2018-09-23T01:26:02.505Z,100778.00
2018-09-23T01:28:31.877Z,100770.00
2018-09-23T01:31:01.316Z,100760.00
2018-09-23T01:33:30.954Z,100758.00
2018-09-23T01:36:00.227Z,100759.00
2018-09-23T01:38:29.783Z,100764.00
2018-09-23T01:40:59.066Z,100759.00
2018-09-23T01:43:28.297Z,100743.00
2018-09-23T01:45:57.598Z,100744.00
2018-09-23T01:48:26.865Z,100742.00
2018-09-23T01:50:58.250Z,100734.00
2018-09-23T01:53:27.648Z,100726.00
2018-09-23T01:55:56.963Z,100733.00
2018-09-23T01:58:26.311Z,100723.00
2018-09-23T02:00:55.600Z,100728.00
2018-09-23T02:03:25.117Z,100728.00
2018-09-23T02:05:54.595Z,100719.00
2018-09-23T02:08:24.051Z,100731.00
2018-09-23T02:10:53.665Z,100722.00
2018-09-23T02:13:22.948Z,100722.00
2018-09-23T02:15:52.233Z,100719.00
2018-09-23T02:18:21.633Z,100733.00
2018-09-23T02:20:51.420Z,100730.00
2018-09-23T02:23:20.896Z,100729.00
2018-09-23T02:25:50.305Z,100722.00
2018-09-23T02:28:19.712Z,100711.00
2018-09-23T02:30:49.055Z,100689.00
2018-09-23T02:33:18.283Z,100702.00
2018-09-23T02:35:49.311Z,100700.00
2018-09-23T02:38:18.817Z,100693.00
2018-09-23T02:40:48.100Z,100690.00
2018-09-23T02:43:17.381Z,100677.00
2018-09-23T02:45:46.701Z,100679.00
2018-09-23T02:48:16.096Z,100683.00
2018-09-23T02:50:45.420Z,100673.00
2018-09-23T02:53:14.774Z,100672.00
2018-09-23T02:55:45.203Z,100665.00
2018-09-23T02:58:14.687Z,100667.00
2018-09-23T03:00:44.052Z,100660.00
2018-09-23T03:03:13.496Z,100658.00
2018-09-23T03:05:42.995Z,100655.00
2018-09-23T03:08:12.315Z,100646.00
2018-09-23T03:10:41.643Z,100658.00
2018-09-23T03:13:10.959Z,100641.00
2018-09-23T03:15:40.816Z,100638.00
2018-09-23T03:18:10.248Z,100635.00
2018-09-23T03:20:39.584Z,100648.00
2018-09-23T03:23:08.835Z,100641.00
2018-09-23T03:25:38.368Z,100632.00
2018-09-23T03:28:07.667Z,100644.00
2018-09-23T03:30:37.102Z,100637.00
2018-09-23T03:33:06.579Z,100630.00
2018-09-23T03:35:35.874Z,100630.00
2018-09-23T03:38:05.287Z,100631.00
2018-09-23T03:40:34.671Z,100625.00
2018-09-23T03:43:04.032Z,100615.00
2018-09-23T03:45:33.372Z,100612.00
2018-09-23T03:48:02.677Z,100605.00
2018-09-23T03:50:32.080Z,100598.00
2018-09-23T03:53:01.456Z,100603.00
2018-09-23T03:55:30.863Z,100597.00
2018-09-23T03:58:00.133Z,100587.00
2018-09-23T04:00:29.482Z,100580.00
2018-09-23T04:02:58.824Z,100569.00
2018-09-23T04:05:28.095Z,100559.00
2018-09-23T04:07:57.571Z,100536.00
2018-09-23T04:10:26.832Z,100530.00
2018-09-23T04:12:56.087Z,100520.00
2018-09-23T04:15:25.522Z,100543.00
2018-09-23T04:17:54.828Z,100556.00
2018-09-23T04:20:24.180Z,100544.00
2018-09-23T04:22:53.431Z,100550.00
2018-09-23T04:25:23.560Z,100558.00
2018-09-23T04:27:52.899Z,100556.00
2018-09-23T04:30:22.579Z,100545.00
2018-09-23T04:32:52.127Z,100545.00
2018-09-23T04:35:22.845Z,100551.00
2018-09-23T04:37:52.200Z,100569.00
2018-09-23T04:40:21.695Z,100562.00
2018-09-23T04:42:51.089Z,100554.00
2018-09-23T04:45:20.512Z,100557.00
2018-09-23T04:47:49.827Z,100545.00
2018-09-23T04:50:19.123Z,100530.00
2018-09-23T04:52:48.443Z,100536.00
2018-09-23T04:55:17.743Z,100537.00
2018-09-23T04:57:47.009Z,100534.00
2018-09-23T05:00:16.287Z,100530.00
2018-09-23T05:02:45.589Z,100526.00
2018-09-23T05:05:14.952Z,100529.00
2018-09-23T05:07:44.239Z,100528.00
2018-09-23T05:10:13.871Z,100514.00
2018-09-23T05:12:43.563Z,100518.00
2018-09-23T05:15:13.077Z,100513.00
2018-09-23T05:17:42.697Z,100514.00
2018-09-23T05:20:12.044Z,100517.00
2018-09-23T05:22:41.348Z,100516.00
2018-09-23T05:25:10.723Z,100530.00
2018-09-23T05:27:40.124Z,100541.00
2018-09-23T05:30:09.641Z,100536.00
2018-09-23T05:32:39.319Z,100535.00
2018-09-23T05:35:08.575Z,100520.00
2018-09-23T05:37:39.095Z,100527.00
2018-09-23T05:40:08.942Z,100534.00
2018-09-23T05:42:38.255Z,100531.00
2018-09-23T05:45:08.740Z,100540.00
2018-09-23T05:47:38.585Z,100534.00
2018-09-23T05:50:08.215Z,100535.00
2018-09-23T05:52:37.886Z,100530.00
2018-09-23T05:55:07.210Z,100530.00
2018-09-23T05:57:36.504Z,100528.00
2018-09-23T06:00:05.848Z,100525.00
2018-09-23T06:02:35.137Z,100511.00
2018-09-23T06:05:04.430Z,100510.00
2018-09-23T06:07:33.775Z,100504.00
2018-09-23T06:10:09.707Z,100495.00
2018-09-23T06:12:39.007Z,100494.00
2018-09-23T06:15:08.333Z,100476.00
2018-09-23T06:17:37.774Z,100475.00
2018-09-23T06:20:07.228Z,100495.00
2018-09-23T06:22:36.527Z,100488.00
2018-09-23T06:25:06.028Z,100480.00
2018-09-23T06:27:35.548Z,100484.00
2018-09-23T06:30:05.088Z,100478.00
2018-09-23T06:32:34.386Z,100491.00
2018-09-23T06:35:03.718Z,100484.00
2018-09-23T06:37:33.108Z,100477.00
2018-09-23T06:40:02.403Z,100475.00
2018-09-23T06:42:33.032Z,100471.00
2018-09-23T06:45:02.343Z,100476.00
2018-09-23T06:47:31.631Z,100474.00
2018-09-23T06:50:01.413Z,100476.00
2018-09-23T06:52:30.812Z,100490.00
2018-09-23T06:55:01.171Z,100497.00
2018-09-23T06:57:30.459Z,100496.00
2018-09-23T06:59:59.785Z,100509.00
2018-09-23T07:02:29.195Z,100495.00
2018-09-23T07:05:09.499Z,100496.00
2018-09-23T07:07:38.843Z,100487.00
2018-09-23T07:10:09.284Z,100484.00
2018-09-23T07:12:38.582Z,100468.00
2018-09-23T07:15:07.898Z,100472.00
2018-09-23T07:17:37.275Z,100456.00
2018-09-23T07:20:06.895Z,100464.00
2018-09-23T07:22:36.191Z,100467.00
2018-09-23T07:25:05.552Z,100474.00
2018-09-23T07:27:34.856Z,100471.00
2018-09-23T07:30:04.408Z,100459.00
2018-09-23T07:32:33.704Z,100459.00
2018-09-23T07:35:02.973Z,100462.00
2018-09-23T07:37:32.207Z,100448.00
2018-09-23T07:40:01.895Z,100451.00
2018-09-23T07:42:31.094Z,100442.00
2018-09-23T07:45:00.414Z,100432.00
2018-09-23T07:47:29.797Z,100434.00
2018-09-23T07:49:59.059Z,100428.00
2018-09-23T07:52:28.347Z,100431.00
2018-09-23T07:54:57.828Z,100411.00
2018-09-23T07:57:27.104Z,100418.00
2018-09-23T07:59:56.403Z,100429.00
2018-09-23T08:02:25.675Z,100440.00
2018-09-23T08:04:54.986Z,100450.00
2018-09-23T08:07:24.201Z,100427.00
2018-09-23T08:09:53.467Z,100428.00
2018-09-23T08:12:22.836Z,100427.00
2018-09-23T08:14:52.489Z,100431.00
2018-09-23T08:17:21.413Z,100415.00
2018-09-23T08:19:51.031Z,100405.00
2018-09-23T08:22:20.171Z,100404.00
2018-09-23T08:24:49.377Z,100404.00
2018-09-23T08:27:18.644Z,100417.00
2018-09-23T08:29:48.026Z,100417.00
2018-09-23T08:32:17.346Z,100409.00
2018-09-23T08:34:46.995Z,100401.00
2018-09-23T08:37:16.259Z,100428.00
2018-09-23T08:39:45.547Z,100408.00
2018-09-23T08:42:15.452Z,100387.00
2018-09-23T08:44:44.749Z,100369.00
2018-09-23T08:47:14.028Z,100351.00
2018-09-23T08:49:43.272Z,100356.00
2018-09-23T08:52:12.680Z,100372.00
2018-09-23T08:54:41.967Z,100377.00
2018-09-23T08:57:11.500Z,100364.00
2018-09-23T08:59:40.816Z,100377.00
2018-09-23T09:02:10.129Z,100375.00
2018-09-23T09:04:39.357Z,100386.00
2018-09-23T09:07:08.623Z,100354.00
2018-09-23T09:09:37.884Z,100342.00
2018-09-23T09:12:07.303Z,100345.00
2018-09-23T09:14:36.559Z,100348.00
2018-09-23T09:17:05.868Z,100338.00
2018-09-23T09:19:35.128Z,100333.00
2018-09-23T09:22:04.439Z,100321.00
2018-09-23T09:24:33.718Z,100324.00
2018-09-23T09:27:03.037Z,100338.00
2018-09-23T09:29:32.298Z,100344.00
2018-09-23T09:32:01.555Z,100338.00
2018-09-23T09:34:30.857Z,100313.00
2018-09-23T09:37:00.171Z,100305.00
2018-09-23T09:39:29.843Z,100303.00
2018-09-23T09:41:59.174Z,100307.00
2018-09-23T09:44:28.619Z,100300.00
2018-09-23T09:46:58.137Z,100292.00
2018-09-23T09:49:27.539Z,100294.00
2018-09-23T09:51:56.847Z,100288.00
2018-09-23T09:54:26.099Z,100289.00
2018-09-23T09:56:55.378Z,100310.00
2018-09-23T09:59:24.647Z,100303.00
2018-09-23T10:01:53.896Z,100298.00
2018-09-23T10:04:23.181Z,100292.00
2018-09-23T10:06:52.424Z,100286.00
2018-09-23T10:09:21.971Z,100268.00
2018-09-23T10:11:51.215Z,100274.00
2018-09-23T10:14:20.537Z,100277.00
2018-09-23T10:16:50.708Z,100283.00
2018-09-23T10:19:20.067Z,100288.00
2018-09-23T10:21:49.339Z,100288.00
2018-09-23T10:24:18.651Z,100306.00
2018-09-23T10:26:47.954Z,100312.00
2018-09-23T10:29:17.309Z,100326.00
2018-09-23T10:31:46.647Z,100310.00
2018-09-23T10:34:15.796Z,100302.00
2018-09-23T10:36:45.078Z,100289.00
2018-09-23T10:39:14.313Z,100271.00
2018-09-23T10:41:43.581Z,100261.00
2018-09-23T10:44:12.948Z,100264.00
2018-09-23T10:46:42.256Z,100275.00
2018-09-23T10:49:11.572Z,100293.00
2018-09-23T10:51:41.103Z,100307.00
2018-09-23T10:54:10.475Z,100299.00
2018-09-23T10:56:39.747Z,100313.00
2018-09-23T10:59:08.998Z,100307.00
2018-09-23T11:01:38.291Z,100288.00
2018-09-23T11:04:07.642Z,100287.00
2018-09-23T11:06:36.880Z,100276.00
2018-09-23T11:09:07.555Z,100265.00
2018-09-23T11:11:37.054Z,100249.00
2018-09-23T11:14:06.500Z,100228.00
2018-09-23T11:16:35.771Z,100237.00
2018-09-23T11:19:05.059Z,100257.00
2018-09-23T11:21:34.364Z,100253.00
2018-09-23T11:24:03.631Z,100245.00
2018-09-23T11:26:32.930Z,100241.00
2018-09-23T11:29:02.270Z,100233.00
2018-09-23T11:31:31.784Z,100266.00
2018-09-23T11:34:01.098Z,100281.00
2018-09-23T11:36:30.417Z,100270.00
2018-09-23T11:38:59.999Z,100267.00
2018-09-23T11:41:29.491Z,100263.00
2018-09-23T11:43:58.763Z,100237.00
2018-09-23T11:46:28.029Z,100229.00
2018-09-23T11:48:57.323Z,100206.00
2018-09-23T11:51:26.583Z,100190.00
2018-09-23T11:53:55.882Z,100207.00
2018-09-23T11:56:25.293Z,100194.00
2018-09-23T11:58:54.557Z,100197.00
2018-09-23T12:01:23.839Z,100210.00
2018-09-23T12:03:53.085Z,100191.00
2018-09-23T12:06:22.344Z,100165.00
2018-09-23T12:08:51.589Z,100169.00
2018-09-23T12:11:20.861Z,100185.00
2018-09-23T12:13:50.167Z,100215.00
2018-09-23T12:16:19.498Z,100201.00
2018-09-23T12:18:48.808Z,100197.00
2018-09-23T12:21:18.100Z,100212.00
2018-09-23T12:23:47.455Z,100212.00
2018-09-23T12:26:16.717Z,100192.00
2018-09-23T12:28:45.988Z,100187.00
2018-09-23T12:31:15.276Z,100152.00
2018-09-23T12:33:44.575Z,100132.00
2018-09-23T12:36:13.814Z,100090.00
2018-09-23T12:38:43.060Z,100081.00
2018-09-23T12:41:12.333Z,100047.00
2018-09-23T12:43:41.536Z,100061.00
2018-09-23T12:46:10.819Z,100086.00
2018-09-23T12:48:40.034Z,100111.00
2018-09-23T12:51:09.639Z,100142.00
2018-09-23T12:53:38.925Z,100161.00
2018-09-23T12:56:08.264Z,100184.00
2018-09-23T12:58:37.562Z,100153.00
2018-09-23T13:01:06.874Z,100145.00
2018-09-23T13:03:36.163Z,100188.00
2018-09-23T13:06:05.428Z,100185.00
2018-09-23T13:08:34.668Z,100182.00
2018-09-23T13:11:03.984Z,100180.00
2018-09-23T13:13:33.296Z,100186.00
2018-09-23T13:16:02.617Z,100182.00
2018-09-23T13:18:31.850Z,100178.00
2018-09-23T13:21:01.426Z,100188.00
2018-09-23T13:23:30.667Z,100177.00
2018-09-23T13:26:00.043Z,100147.00
2018-09-23T13:28:29.310Z,100138.00
2018-09-23T13:30:58.566Z,100144.00
2018-09-23T13:33:27.921Z,100142.00
2018-09-23T13:35:57.306Z,100170.00
2018-09-23T13:38:26.673Z,100193.00
2018-09-23T13:40:55.902Z,100216.00
2018-09-23T13:43:25.151Z,100198.00
2018-09-23T13:45:54.422Z,100177.00
2018-09-23T13:48:23.684Z,100183.00
2018-09-23T13:50:53.071Z,100174.00
2018-09-23T13:53:22.412Z,100183.00
2018-09-23T13:55:52.743Z,100188.00
2018-09-23T13:58:21.969Z,100175.00
2018-09-23T14:00:51.259Z,100180.00
2018-09-23T14:03:20.512Z,100186.00
2018-09-23T14:05:50.175Z,100163.00
2018-09-23T14:08:19.509Z,100152.00
2018-09-23T14:10:48.823Z,100145.00
2018-09-23T14:13:18.182Z,100164.00
2018-09-23T14:15:47.466Z,100200.00
2018-09-23T14:18:16.742Z,100219.00
2018-09-23T14:20:46.007Z,100243.00
2018-09-23T14:23:15.272Z,100234.00
2018-09-23T14:25:44.692Z,100246.00
2018-09-23T14:28:13.870Z,100237.00
2018-09-23T14:30:43.134Z,100228.00
2018-09-23T14:33:12.459Z,100220.00
2018-09-23T14:35:43.996Z,100227.00
2018-09-23T14:38:13.380Z,100252.00
2018-09-23T14:40:42.615Z,100256.00
2018-09-23T14:43:11.832Z,100265.00
2018-09-23T14:45:41.127Z,100274.00
2018-09-23T14:48:10.889Z,100286.00
2018-09-23T14:50:40.160Z,100296.00
2018-09-23T14:53:09.438Z,100311.00
2018-09-23T14:55:38.753Z,100315.00
2018-09-23T14:58:08.498Z,100319.00
2018-09-23T15:00:37.773Z,100299.00
2018-09-23T15:03:07.131Z,100305.00
2018-09-23T15:05:36.424Z,100318.00
2018-09-23T15:08:05.739Z,100308.00
2018-09-23T15:10:35.027Z,100317.00
2018-09-23T15:13:04.319Z,100304.00
2018-09-23T15:15:33.635Z,100303.00
2018-09-23T15:18:03.111Z,100273.00
2018-09-23T15:20:32.568Z,100274.00
2018-09-23T15:23:02.041Z,100280.00
2018-09-23T15:25:31.668Z,100280.00
2018-09-23T15:28:01.328Z,100279.00
2018-09-23T15:30:30.807Z,100280.00
2018-09-23T15:33:00.541Z,100288.00
2018-09-23T15:35:29.963Z,100298.00
2018-09-23T15:37:59.263Z,100309.00
2018-09-23T15:40:28.516Z,100323.00
2018-09-23T15:42:57.827Z,100330.00
2018-09-23T15:45:27.160Z,100335.00
2018-09-23T15:47:56.497Z,100335.00
2018-09-23T15:50:25.757Z,100336.00
2018-09-23T15:52:55.047Z,100345.00
2018-09-23T15:55:24.379Z,100340.00
2018-09-23T15:57:53.689Z,100341.00
2018-09-23T16:00:23.071Z,100347.00
2018-09-23T16:02:52.351Z,100362.00
2018-09-23T16:05:21.555Z,100364.00
2018-09-23T16:07:50.743Z,100365.00
2018-09-23T16:10:20.011Z,100371.00
2018-09-23T16:12:49.276Z,100379.00
2018-09-23T16:15:18.600Z,100387.00
2018-09-23T16:17:47.876Z,100383.00
2018-09-23T16:20:17.143Z,100389.00
2018-09-23T16:22:46.489Z,100393.00
2018-09-23T16:25:15.734Z,100409.00
2018-09-23T16:27:45.098Z,100417.00
2018-09-23T16:30:14.367Z,100431.00
2018-09-23T16:32:43.851Z,100431.00
2018-09-23T16:35:13.139Z,100450.00
2018-09-23T16:37:42.471Z,100453.00
2018-09-23T16:40:11.775Z,100460.00
2018-09-23T16:42:41.206Z,100465.00
2018-09-23T16:45:10.575Z,100481.00
2018-09-23T16:47:40.241Z,100478.00
2018-09-23T16:50:09.425Z,100491.00
2018-09-23T16:52:38.707Z,100485.00
2018-09-23T16:55:08.194Z,100496.00
2018-09-23T16:57:37.662Z,100509.00
2018-09-23T17:00:06.984Z,100510.00
2018-09-23T17:02:36.235Z,100516.00
2018-09-23T17:05:05.523Z,100510.00
2018-09-23T17:07:34.788Z,100521.00
2018-09-23T17:10:04.069Z,100522.00
2018-09-23T17:12:33.374Z,100522.00
2018-09-23T17:15:03.113Z,100525.00
2018-09-23T17:17:32.628Z,100544.00
2018-09-23T17:20:01.970Z,100545.00
2018-09-23T17:22:31.228Z,100546.00
2018-09-23T17:25:00.512Z,100559.00
2018-09-23T17:27:29.904Z,100563.00
2018-09-23T17:30:01.771Z,100563.00
2018-09-23T17:32:30.943Z,100579.00
2018-09-23T17:35:00.286Z,100581.00
2018-09-23T17:37:29.498Z,100591.00
2018-09-23T17:39:58.807Z,100606.00
2018-09-23T17:42:29.244Z,100606.00
2018-09-23T17:44:58.592Z,100620.00
2018-09-23T17:47:27.883Z,100613.00
2018-09-23T17:49:57.145Z,100616.00
2018-09-23T17:52:26.663Z,100620.00
2018-09-23T17:54:56.167Z,100626.00
2018-09-23T17:57:25.434Z,100627.00
2018-09-23T17:59:54.767Z,100636.00
2018-09-23T18:02:24.092Z,100647.00
2018-09-23T18:04:53.323Z,100649.00
2018-09-23T18:07:22.646Z,100668.00
2018-09-23T18:09:52.656Z,100671.00
2018-09-23T18:12:22.911Z,100675.00
2018-09-23T18:14:52.195Z,100663.00
2018-09-23T18:17:21.503Z,100705.00
2018-09-23T18:19:50.776Z,100715.00
2018-09-23T18:22:20.336Z,100721.00
2018-09-23T18:24:49.607Z,100748.00
2018-09-23T18:27:18.929Z,100751.00
2018-09-23T18:29:48.733Z,100761.00
2018-09-23T18:32:18.032Z,100759.00
2018-09-23T18:34:48.388Z,100767.00
2018-09-23T18:37:18.198Z,100779.00
2018-09-23T18:39:47.463Z,100793.00
2018-09-23T18:42:16.699Z,100797.00
2018-09-23T18:44:46.115Z,100814.00
2018-09-23T18:47:15.692Z,100814.00
2018-09-23T18:49:45.039Z,100813.00
2018-09-23T18:52:16.572Z,100821.00
2018-09-23T18:54:51.428Z,100828.00
2018-09-23T18:57:20.705Z,100831.00
2018-09-23T18:59:49.973Z,100838.00
2018-09-23T19:02:19.191Z,100845.00
2018-09-23T19:04:52.730Z,100847.00
2018-09-23T19:07:22.030Z,100862.00
2018-09-23T19:09:51.313Z,100866.00
2018-09-23T19:12:20.668Z,100874.00
2018-09-23T19:14:49.974Z,100881.00
2018-09-23T19:17:19.490Z,100882.00
2018-09-23T19:19:54.171Z,100893.00
2018-09-23T19:22:28.631Z,100904.00
2018-09-23T19:24:58.023Z,100913.00
2018-09-23T19:27:27.363Z,100919.00
2018-09-23T19:29:56.665Z,100923.00
2018-09-23T19:32:25.974Z,100929.00
2018-09-23T19:34:55.272Z,100920.00
2018-09-23T19:37:24.573Z,100934.00
2018-09-23T19:39:54.121Z,100940.00
2018-09-23T19:42:23.399Z,100963.00
2018-09-23T19:44:52.679Z,100967.00
2018-09-23T19:47:22.031Z,100974.00
2018-09-23T19:49:51.379Z,100982.00
2018-09-23T19:52:20.689Z,100993.00
2018-09-23T19:54:49.939Z,100988.00
2018-09-23T19:57:19.211Z,100991.00
2018-09-23T19:59:48.491Z,100998.00
2018-09-23T20:02:17.882Z,100995.00
2018-09-23T20:04:47.416Z,101005.00
2018-09-23T20:07:16.757Z,101021.00
2018-09-23T20:09:46.490Z,101014.00
2018-09-23T20:12:15.900Z,101016.00
2018-09-23T20:14:45.215Z,101025.00
2018-09-23T20:17:14.843Z,101046.00
2018-09-23T20:19:44.614Z,101051.00
2018-09-23T20:22:13.899Z,101050.00
2018-09-23T20:24:43.119Z,101045.00
2018-09-23T20:27:12.485Z,101055.00
2018-09-23T20:29:41.784Z,101062.00
2018-09-23T20:32:11.042Z,101058.00
2018-09-23T20:34:40.453Z,101066.00
2018-09-23T20:37:09.708Z,101068.00
2018-09-23T20:39:39.068Z,101074.00
2018-09-23T20:42:08.513Z,101076.00
2018-09-23T20:44:37.906Z,101076.00
2018-09-23T20:47:07.264Z,101096.00
2018-09-23T20:49:36.503Z,101092.00
2018-09-23T20:52:06.218Z,101104.00
2018-09-23T20:54:35.656Z,101124.00
2018-09-23T20:57:05.289Z,101126.00
2018-09-23T20:59:34.764Z,101142.00
2018-09-23T21:02:04.074Z,101152.00
2018-09-23T21:04:33.803Z,101148.00
2018-09-23T21:07:03.047Z,101152.00
2018-09-23T21:09:32.299Z,101153.00
2018-09-23T21:12:01.565Z,101148.00
2018-09-23T21:14:31.002Z,101158.00
2018-09-23T21:17:00.704Z,101156.00
2018-09-23T21:19:30.019Z,101162.00
2018-09-23T21:21:59.282Z,101165.00
2018-09-23T21:24:28.568Z,101160.00
2018-09-23T21:26:58.011Z,101178.00
2018-09-23T21:29:27.515Z,101194.00
2018-09-23T21:31:56.870Z,101185.00
2018-09-23T21:34:26.165Z,101197.00
2018-09-23T21:36:55.431Z,101193.00
2018-09-23T21:39:24.814Z,101202.00
2018-09-23T21:41:54.291Z,101208.00
2018-09-23T21:44:23.589Z,101212.00
2018-09-23T21:46:52.981Z,101222.00
2018-09-23T21:49:22.326Z,101227.00
2018-09-23T21:51:51.596Z,101230.00
2018-09-23T21:54:20.887Z,101242.00
2018-09-23T21:56:50.162Z,101231.00
2018-09-23T21:59:19.426Z,101244.00
2018-09-23T22:01:48.691Z,101251.00
2018-09-23T22:04:17.910Z,101258.00
2018-09-23T22:06:47.575Z,101256.00
2018-09-23T22:09:16.843Z,101257.00
2018-09-23T22:11:46.187Z,101256.00
2018-09-23T22:14:15.485Z,101264.00
2018-09-23T22:16:44.794Z,101269.00
2018-09-23T22:19:14.122Z,101264.00
2018-09-23T22:21:43.380Z,101275.00
2018-09-23T22:24:12.587Z,101279.00
2018-09-23T22:26:41.791Z,101285.00
2018-09-23T22:29:11.042Z,101291.00
2018-09-23T22:31:40.282Z,101295.00
2018-09-23T22:34:09.628Z,101309.00
2018-09-23T22:36:38.877Z,101304.00
2018-09-23T22:39:08.325Z,101316.00
2018-09-23T22:41:37.624Z,101315.00
2018-09-23T22:44:06.917Z,101319.00
2018-09-23T22:46:36.232Z,101321.00
2018-09-23T22:49:05.485Z,101327.00
2018-09-23T22:51:34.942Z,101336.00
2018-09-23T22:54:10.087Z,101335.00
2018-09-23T22:56:39.409Z,101356.00
2018-09-23T22:59:08.631Z,101365.00
2018-09-23T23:01:37.955Z,101359.00
2018-09-23T23:04:07.367Z,101367.00
2018-09-23T23:06:36.969Z,101365.00
2018-09-23T23:09:09.065Z,101363.00
2018-09-23T23:11:38.319Z,101367.00
2018-09-23T23:14:07.774Z,101369.00
2018-09-23T23:16:37.070Z,101377.00
2018-09-23T23:19:06.420Z,101369.00
2018-09-23T23:21:35.655Z,101390.00
2018-09-23T23:24:04.986Z,101382.00
2018-09-23T23:26:34.279Z,101388.00
2018-09-23T23:29:03.576Z,101394.00
2018-09-23T23:31:32.873Z,101400.00
2018-09-23T23:34:02.064Z,101414.00
2018-09-23T23:36:31.546Z,101419.00
2018-09-23T23:39:00.860Z,101417.00
2018-09-23T23:41:30.174Z,101420.00
2018-09-23T23:43:59.459Z,101426.00
2018-09-23T23:46:30.884Z,101430.00
2018-09-23T23:49:00.234Z,101434.00
2018-09-23T23:51:29.588Z,101431.00
2018-09-23T23:53:58.869Z,101450.00
2018-09-23T23:56:28.220Z,101437.00
2018-09-23T23:58:57.494Z,101444.00
